Time;durP1;ratioP1;P1;durP2;ratioP2;P2;SDS_P1;SDS_P2;PMS_P1;PMS_P2;Temp;Humidity;BMP_temperature;BMP_pressure;BME280_temperature;BME280_humidity;BME280_pressure;Samples;Min_cycle;Max_cycle;Signal;HPM_P1;HPM_P2
2021/07/21 00:01:57;;;;;;;20.75;7.63;;;;;;;23.58;41.70;98524.63;5006017;28;20073;-73
2021/07/21 00:04:23;;;;;;;32.15;8.65;;;;;;;23.59;41.73;98536.56;5010650;28;20053;-73
2021/07/21 00:06:49;;;;;;;25.27;8.48;;;;;;;23.55;41.69;98530.97;5011362;28;20049;-72
2021/07/21 00:09:15;;;;;;;21.80;7.32;;;;;;;23.55;41.63;98525.38;5012132;28;20050;-72
2021/07/21 00:14:28;;;;;;;;;;;;;;;23.52;41.58;98523.38;5003372;28;20489;-72
2021/07/21 00:16:56;;;;;;;20.58;7.53;;;;;;;23.51;41.51;98513.41;4979048;28;20023;-72
2021/07/21 00:22:07;;;;;;;26.33;8.40;;;;;;;23.49;41.98;98521.38;4992883;28;20050;-72
2021/07/21 00:24:33;;;;;;;23.23;7.78;;;;;;;23.51;42.03;98530.16;5002442;28;20046;-72
2021/07/21 00:27:05;;;;;;;23.13;7.72;;;;;;;23.53;41.81;98519.41;4992822;28;20081;-73
2021/07/21 00:29:31;;;;;;;26.33;8.63;;;;;;;23.52;42.00;98526.16;4994907;28;20486;-71
2021/07/21 00:31:57;;;;;;;21.60;8.20;;;;;;;23.46;42.11;98503.44;5007112;28;20576;-72
2021/07/21 00:34:24;;;;;;;24.67;7.95;;;;;;;23.44;42.07;98508.63;5002043;28;20514;-72
2021/07/21 00:36:50;;;;;;;29.13;8.10;;;;;;;23.47;41.99;98509.84;5004170;28;20054;-73
2021/07/21 00:39:17;;;;;;;28.05;7.78;;;;;;;23.45;42.46;98509.44;4996186;28;20340;-71
2021/07/21 00:41:43;;;;;;;24.17;7.22;;;;;;;23.47;41.97;98507.03;4994951;28;20042;-73
2021/07/21 00:44:10;;;;;;;30.30;8.50;;;;;;;23.46;42.19;98505.44;4997758;28;20065;-72
2021/07/21 00:46:40;;;;;;;25.60;7.90;;;;;;;23.40;42.21;98499.44;5008724;28;20041;-72
2021/07/21 00:49:06;;;;;;;21.17;7.70;;;;;;;23.42;42.09;98499.84;5011618;28;20099;-73
2021/07/21 00:51:33;;;;;;;24.77;8.70;;;;;;;23.34;41.94;98487.09;5001364;28;20050;-73
2021/07/21 00:54:00;;;;;;;24.95;8.10;;;;;;;23.37;42.25;98489.09;5006499;28;20069;-72
2021/07/21 00:56:30;;;;;;;24.10;8.10;;;;;;;23.35;42.17;98489.47;5038333;28;20054;-72
2021/07/21 00:58:56;;;;;;;26.02;7.55;;;;;;;23.26;42.50;98491.00;4991869;28;20070;-71
2021/07/21 01:01:24;;;;;;;27.05;7.90;;;;;;;23.26;42.28;98486.28;4992332;28;20117;-73
2021/07/21 01:03:51;;;;;;;24.40;7.55;;;;;;;23.22;42.31;98486.22;4993494;28;20050;-71
2021/07/21 01:06:19;;;;;;;24.52;8.20;;;;;;;23.19;42.82;98473.06;4980642;28;20136;-71
2021/07/21 01:08:47;;;;;;;27.20;8.35;;;;;;;23.20;42.73;98479.44;5008380;28;20077;-73
2021/07/21 01:11:36;;;;;;;23.33;7.63;;;;;;;23.15;43.08;98480.59;4979372;28;20474;-71
2021/07/21 01:14:11;;;;;;;25.73;7.28;;;;;;;23.16;42.85;98478.63;5012221;28;20088;-73
2021/07/21 01:16:47;;;;;;;21.73;8.07;;;;;;;23.13;42.84;98469.06;5006578;28;20045;-72
2021/07/21 01:19:19;;;;;;;22.45;7.90;;;;;;;23.09;43.03;98459.88;5015589;28;20461;-71
2021/07/21 01:22:07;;;;;;;23.50;7.85;;;;;;;23.13;42.83;98462.69;4997467;28;20538;-72
2021/07/21 01:24:48;;;;;;;20.08;8.63;;;;;;;23.12;42.97;98455.53;5013874;28;20141;-73
2021/07/21 01:27:24;;;;;;;28.67;7.47;;;;;;;23.14;42.89;98459.50;5014024;28;20530;-73
2021/07/21 01:29:55;;;;;;;25.77;7.73;;;;;;;23.15;43.56;98451.94;5013439;28;20061;-73
2021/07/21 01:32:26;;;;;;;27.30;7.90;;;;;;;23.24;43.42;98457.94;5014873;28;20404;-72
2021/07/21 01:34:58;;;;;;;22.98;8.02;;;;;;;23.27;43.50;98457.19;5012434;28;20042;-71
2021/07/21 01:37:27;;;;;;;25.92;7.88;;;;;;;23.31;43.50;98452.44;5011416;28;20088;-72
2021/07/21 01:40:00;;;;;;;32.35;8.23;;;;;;;23.39;43.66;98450.44;5013708;28;20075;-72
2021/07/21 01:42:29;;;;;;;26.67;7.70;;;;;;;23.37;43.34;98447.25;5014499;28;20077;-72
2021/07/21 01:44:59;;;;;;;33.05;8.02;;;;;;;23.42;43.23;98444.09;5012144;28;20048;-72
2021/07/21 01:47:28;;;;;;;27.83;7.72;;;;;;;23.45;42.68;98453.66;5010658;28;20120;-72
2021/07/21 01:49:55;;;;;;;22.25;7.45;;;;;;;23.50;42.96;98453.25;5014332;28;20050;-75
2021/07/21 01:52:26;;;;;;;20.65;7.93;;;;;;;23.51;43.32;98443.69;5013504;28;20050;-74
2021/07/21 01:54:57;;;;;;;25.17;8.38;;;;;;;23.53;43.30;98446.88;5010845;28;20073;-73
2021/07/21 01:57:31;;;;;;;30.00;8.15;;;;;;;23.58;43.47;98446.50;5011804;28;20131;-73
2021/07/21 02:00:18;;;;;;;17.80;7.97;;;;;;;23.63;43.19;98443.31;4982220;28;20582;-73
2021/07/21 02:02:49;;;;;;;24.42;7.65;;;;;;;23.77;43.11;98448.13;4978881;28;20112;-73
2021/07/21 02:05:23;;;;;;;28.42;7.53;;;;;;;23.85;42.81;98448.91;5009294;28;20042;-72
2021/07/21 02:07:52;;;;;;;28.40;7.90;;;;;;;23.86;42.84;98439.34;4994778;28;20046;-73
2021/07/21 02:10:22;;;;;;;21.42;7.60;;;;;;;23.98;42.54;98442.94;5022632;28;20053;-74
2021/07/21 02:13:03;;;;;;;22.55;9.30;;;;;;;23.88;42.84;98448.13;4996806;28;20050;-74
2021/07/21 02:15:33;;;;;;;48.17;25.50;;;;;;;23.88;42.59;98447.31;4994219;28;20416;-73
2021/07/21 02:18:04;;;;;;;77.20;37.58;;;;;;;23.94;42.50;98445.72;5029073;28;20057;-73
2021/07/21 02:20:33;;;;;;;75.18;38.05;;;;;;;24.01;42.23;98445.75;4996350;28;20524;-73
2021/07/21 02:23:02;;;;;;;91.10;45.20;;;;;;;24.04;42.34;98453.34;5011869;28;20052;-73
2021/07/21 02:25:44;;;;;;;85.53;46.22;;;;;;;24.01;42.49;98453.31;5013834;28;20041;-73
2021/07/21 02:28:14;;;;;;;84.22;44.80;;;;;;;24.08;42.15;98442.97;5010239;28;20046;-74
2021/07/21 02:30:46;;;;;;;68.28;38.33;;;;;;;24.17;42.13;98447.34;5011235;28;20054;-73
2021/07/21 02:33:16;;;;;;;85.90;46.10;;;;;;;24.21;42.37;98450.94;5012555;28;20058;-73
2021/07/21 02:35:44;;;;;;;87.07;53.08;;;;;;;24.11;42.08;98443.34;5010235;28;20053;-73
2021/07/21 02:38:11;;;;;;;69.60;42.40;;;;;;;24.13;42.29;98463.31;5012145;28;20050;-72
2021/07/21 02:40:45;;;;;;;56.70;33.85;;;;;;;24.14;42.07;98462.91;5012069;28;20058;-72
2021/07/21 02:43:26;;;;;;;41.42;23.90;;;;;;;24.17;42.01;98467.69;5012498;28;20062;-72
2021/07/21 02:45:56;;;;;;;42.40;22.90;;;;;;;24.16;42.07;98468.09;5010906;28;20053;-72
2021/07/21 02:48:23;;;;;;;44.15;22.08;;;;;;;24.20;41.91;98472.50;5009404;28;20162;-73
2021/07/21 02:51:04;;;;;;;64.13;33.90;;;;;;;24.19;42.22;98468.06;5011300;28;20046;-73
2021/07/21 02:53:39;;;;;;;72.25;37.90;;;;;;;24.14;42.69;98459.34;5010972;28;20092;-72
2021/07/21 02:56:41;;;;;;;101.25;49.88;;;;;;;24.23;42.37;98475.69;5010783;28;20052;-72
2021/07/21 02:59:13;;;;;;;108.85;54.40;;;;;;;24.32;42.62;98464.88;5011796;28;20140;-72
2021/07/21 03:01:48;;;;;;;85.18;44.63;;;;;;;24.36;42.17;98466.47;5004747;28;20042;-73
2021/07/21 03:04:20;;;;;;;74.45;40.00;;;;;;;24.30;42.32;98454.13;5020914;28;20233;-73
2021/07/21 03:06:50;;;;;;;76.55;34.30;;;;;;;24.35;42.20;98455.69;5012164;28;20050;-72
2021/07/21 03:09:20;;;;;;;61.80;31.10;;;;;;;24.35;42.14;98452.91;5011683;28;20073;-73
2021/07/21 03:12:05;;;;;;;48.83;23.90;;;;;;;24.42;42.15;98458.50;5011685;28;20045;-72
2021/07/21 03:14:47;;;;;;;50.53;21.98;;;;;;;24.43;42.01;98462.88;5002599;28;20085;-72
2021/07/21 03:17:16;;;;;;;40.88;17.63;;;;;;;24.47;42.23;98463.66;5010078;28;20050;-73
2021/07/21 03:19:54;;;;;;;34.05;14.85;;;;;;;24.44;42.36;98466.47;5009260;28;20115;-71
2021/07/21 03:22:26;;;;;;;40.28;14.55;;;;;;;24.42;42.48;98458.50;5010290;28;20104;-72
2021/07/21 03:24:59;;;;;;;30.55;13.48;;;;;;;24.52;42.35;98472.84;5021740;28;20065;-73
2021/07/21 03:27:36;;;;;;;25.38;12.38;;;;;;;24.61;42.03;98459.25;5011387;28;20414;-72
2021/07/21 03:30:23;;;;;;;29.63;10.50;;;;;;;24.74;41.86;98456.81;5011877;28;20437;-73
2021/07/21 03:32:57;;;;;;;28.05;10.70;;;;;;;24.82;41.74;98460.41;4994715;28;20061;-72
2021/07/21 03:35:27;;;;;;;21.05;9.13;;;;;;;24.86;41.59;98461.22;5005420;28;20048;-73
2021/07/21 03:37:57;;;;;;;28.27;7.55;;;;;;;24.74;41.86;98465.19;5011567;28;20069;-72
2021/07/21 03:40:25;;;;;;;18.70;6.78;;;;;;;24.67;42.09;98462.44;5010924;28;20069;-73
2021/07/21 03:43:18;;;;;;;17.88;6.70;;;;;;;24.70;41.83;98467.22;5006705;28;20058;-72
2021/07/21 03:45:57;;;;;;;18.15;7.20;;;;;;;24.72;41.77;98462.00;5010207;28;20089;-73
2021/07/21 03:48:24;;;;;;;22.33;7.40;;;;;;;24.82;41.81;98474.38;5011461;28;20049;-73
2021/07/21 03:51:17;;;;;;;17.50;6.45;;;;;;;24.91;41.75;98474.75;5009623;28;20100;-73
2021/07/21 03:54:07;;;;;;;18.83;6.43;;;;;;;24.88;41.50;98470.00;5010576;28;20056;-73
2021/07/21 03:56:40;;;;;;;19.25;6.20;;;;;;;24.99;41.70;98464.34;4991260;28;20062;-74
2021/07/21 03:59:07;;;;;;;23.02;6.32;;;;;;;25.00;41.70;98468.75;5006027;28;20526;-72
2021/07/21 04:01:42;;;;;;;21.48;6.40;;;;;;;25.01;41.58;98467.53;5009530;28;20058;-72
2021/07/21 04:04:10;;;;;;;20.38;6.10;;;;;;;25.05;41.70;98460.72;4993764;28;20414;-72
2021/07/21 04:06:38;;;;;;;21.15;6.78;;;;;;;25.11;41.61;98460.31;5010858;28;20058;-72
2021/07/21 04:09:28;;;;;;;16.40;5.90;;;;;;;25.25;41.36;98463.03;5009800;28;20057;-73
2021/07/21 04:12:00;;;;;;;19.85;6.13;;;;;;;25.33;41.46;98461.00;5005518;28;20495;-73
2021/07/21 04:14:49;;;;;;;16.90;5.88;;;;;;;25.37;41.84;98453.41;5010866;28;20418;-72
2021/07/21 04:17:31;;;;;;;17.27;5.53;;;;;;;25.47;41.51;98460.91;5010146;28;20380;-71
2021/07/21 04:20:04;;;;;;;18.00;5.70;;;;;;;25.56;41.29;98468.09;5024680;28;20054;-72
2021/07/21 04:22:32;;;;;;;14.77;5.80;;;;;;;25.61;41.05;98467.66;5007124;28;20300;-73
2021/07/21 04:24:58;;;;;;;;;;;;;;;25.60;41.25;98464.09;5010432;28;20046;-73
2021/07/21 04:27:25;;;;;;;;;;;;;;;25.48;41.32;98470.94;5010165;28;19971;-72
2021/07/21 04:30:10;;;;;;;18.52;5.50;;;;;;;25.44;41.02;98474.91;5009342;28;19932;-72
2021/07/21 04:32:41;;;;;;;20.77;5.78;;;;;;;25.44;41.36;98478.53;5009799;28;20046;-72
2021/07/21 04:35:12;;;;;;;22.30;5.63;;;;;;;25.42;41.39;98477.31;5001549;28;20041;-73
2021/07/21 04:37:44;;;;;;;15.93;5.40;;;;;;;25.46;41.30;98475.31;4999751;28;20086;-73
2021/07/21 04:40:12;;;;;;;16.25;5.15;;;;;;;25.40;41.11;98474.94;4993902;28;20184;-73
2021/07/21 04:42:45;;;;;;;14.85;5.10;;;;;;;25.49;41.15;98480.91;5008097;28;20046;-73
2021/07/21 04:45:15;;;;;;;18.70;5.53;;;;;;;25.51;41.25;98471.31;5008763;28;20124;-72
2021/07/21 04:47:44;;;;;;;20.63;5.55;;;;;;;25.65;41.25;98481.63;5008111;28;20141;-73
2021/07/21 04:50:15;;;;;;;18.77;5.20;;;;;;;25.72;40.89;98484.38;5008519;28;20046;-73
2021/07/21 04:52:42;;;;;;;24.85;5.80;;;;;;;25.70;40.89;98479.19;5010893;28;20061;-71
2021/07/21 04:55:10;;;;;;;13.25;4.63;;;;;;;25.80;40.25;98485.13;4992951;28;20057;-73
2021/07/21 04:57:42;;;;;;;18.55;5.10;;;;;;;25.82;40.27;98485.50;5007907;28;20101;-73
2021/07/21 05:00:15;;;;;;;14.32;4.55;;;;;;;25.84;40.23;98492.28;5009247;28;20056;-73
2021/07/21 05:03:10;;;;;;;16.55;4.60;;;;;;;25.94;39.98;98487.81;4985021;28;20603;-73
2021/07/21 05:05:43;;;;;;;25.55;5.50;;;;;;;25.97;39.52;98481.41;5007335;28;20038;-73
2021/07/21 05:08:11;;;;;;;12.23;4.75;;;;;;;25.90;39.67;98470.25;5001613;28;20042;-72
2021/07/21 05:10:55;;;;;;;15.48;4.95;;;;;;;26.00;39.59;98483.41;5002253;28;20038;-72
2021/07/21 05:13:23;;;;;;;17.90;4.68;;;;;;;26.05;39.19;98488.53;5010367;28;20072;-72
2021/07/21 05:15:49;;;;;;;21.40;4.97;;;;;;;26.11;39.01;98482.50;4993703;28;20045;-73
2021/07/21 05:18:19;;;;;;;14.25;4.72;;;;;;;26.13;38.98;98480.88;5008673;28;20407;-72
2021/07/21 05:20:52;;;;;;;19.27;4.97;;;;;;;26.15;38.85;98486.84;5009593;28;20062;-73
2021/07/21 05:23:20;;;;;;;22.95;4.70;;;;;;;26.07;38.50;98484.53;5009922;28;20046;-72
2021/07/21 05:26:07;;;;;;;19.25;4.82;;;;;;;26.11;38.67;98488.91;4989795;28;20041;-72
2021/07/21 05:28:41;;;;;;;18.35;4.93;;;;;;;26.13;38.29;98483.69;5009613;28;20406;-70
2021/07/21 05:31:31;;;;;;;19.77;4.50;;;;;;;26.18;37.93;98488.84;5003809;28;20057;-73
2021/07/21 05:34:19;;;;;;;16.17;3.88;;;;;;;26.16;37.94;98487.66;4980873;28;20077;-72
2021/07/21 05:36:45;;;;;;;19.92;4.57;;;;;;;26.22;37.95;98488.03;5009789;28;20050;-72
2021/07/21 05:39:23;;;;;;;18.65;3.88;;;;;;;26.25;37.95;98485.19;5010195;28;20053;-72
2021/07/21 05:41:54;;;;;;;15.23;4.33;;;;;;;26.31;37.74;98489.16;4992001;28;20046;-72
2021/07/21 05:44:23;;;;;;;12.50;3.08;;;;;;;26.38;37.82;98493.09;5010477;28;20478;-73
2021/07/21 05:46:54;;;;;;;18.25;4.30;;;;;;;26.26;37.35;98478.38;4990829;28;20501;-73
2021/07/21 05:49:22;;;;;;;19.08;3.97;;;;;;;26.31;37.22;98491.97;5007899;28;20050;-72
2021/07/21 05:52:01;;;;;;;14.57;3.67;;;;;;;26.24;37.31;98469.59;5009215;28;20129;-74
2021/07/21 05:54:36;;;;;;;14.93;4.07;;;;;;;26.35;37.29;98480.72;5007243;28;20049;-73
2021/07/21 05:57:04;;;;;;;13.27;3.50;;;;;;;26.40;37.32;98482.28;5008706;28;20049;-73
2021/07/21 05:59:35;;;;;;;16.45;4.00;;;;;;;26.45;37.26;98482.63;5011809;28;20132;-72
2021/07/21 06:02:03;;;;;;;19.75;4.85;;;;;;;26.43;37.24;98475.84;5011970;28;20045;-72
2021/07/21 06:04:33;;;;;;;18.83;4.15;;;;;;;26.49;37.27;98493.81;5012204;28;20041;-72
2021/07/21 06:07:17;;;;;;;19.98;3.58;;;;;;;26.48;37.16;98473.38;5012645;28;20042;-73
2021/07/21 06:10:05;;;;;;;15.30;3.53;;;;;;;26.54;37.07;98472.94;5009213;28;20052;-72
2021/07/21 06:12:44;;;;;;;20.15;3.60;;;;;;;26.56;36.90;98478.94;5010629;28;20078;-75
2021/07/21 06:15:10;;;;;;;11.82;4.25;;;;;;;26.58;36.69;98476.50;5011404;28;20103;-75
2021/07/21 06:17:37;;;;;;;;;;;;;;;26.60;36.84;98482.47;5011779;28;20061;-73
2021/07/21 06:20:08;;;;;;;13.77;3.60;;;;;;;26.63;36.99;98478.06;5014013;28;19996;-75
2021/07/21 06:22:39;;;;;;;12.27;2.90;;;;;;;26.65;36.93;98487.63;5006975;28;20453;-74
2021/07/21 06:25:17;;;;;;;16.25;3.45;;;;;;;26.69;36.29;98462.38;5000202;28;20042;-74
2021/07/21 06:28:04;;;;;;;17.08;3.80;;;;;;;26.57;36.01;98477.72;5002892;28;20070;-74
2021/07/21 06:30:37;;;;;;;19.35;3.53;;;;;;;26.52;35.79;98478.16;5005153;28;20072;-75
2021/07/21 06:33:07;;;;;;;11.85;3.28;;;;;;;26.63;36.06;98473.22;4988231;28;20070;-73
2021/07/21 06:35:35;;;;;;;11.50;3.22;;;;;;;26.58;35.98;98465.28;4990720;28;20097;-73
2021/07/21 06:38:02;;;;;;;11.05;3.70;;;;;;;26.68;35.91;98467.16;5026595;28;20121;-74
2021/07/21 06:40:29;;;;;;;;;;;;;;;26.74;35.94;98462.72;5011781;28;20125;-74
2021/07/21 06:42:56;;;;;;;14.13;3.78;;;;;;;26.74;36.12;98461.91;5009942;28;19937;-76
2021/07/21 06:45:23;;;;;;;16.30;4.38;;;;;;;26.74;36.06;98471.13;5011856;28;20391;-75
2021/07/21 06:48:07;;;;;;;13.13;3.80;;;;;;;26.84;36.07;98463.00;5005631;28;20518;-75
2021/07/21 06:50:39;;;;;;;14.35;3.58;;;;;;;26.86;36.65;98463.41;5011732;28;20136;-76
2021/07/21 06:53:07;;;;;;;11.18;3.05;;;;;;;26.95;36.66;98469.31;5013063;28;20510;-76
2021/07/21 06:55:53;;;;;;;12.93;3.60;;;;;;;27.02;36.26;98471.22;4980808;28;20141;-75
2021/07/21 06:58:21;;;;;;;14.85;3.33;;;;;;;27.01;35.79;98464.84;5012187;28;20046;-76
2021/07/21 07:00:48;;;;;;;12.27;3.33;;;;;;;27.07;36.20;98467.16;5018772;28;20411;-75
2021/07/21 07:03:21;;;;;;;16.23;3.38;;;;;;;27.12;36.22;98461.91;5003594;28;20050;-76
2021/07/21 07:06:07;;;;;;;13.20;3.08;;;;;;;27.13;35.82;98459.88;5010255;28;20056;-76
2021/07/21 07:08:52;;;;;;;15.02;4.45;;;;;;;27.09;35.68;98453.53;5012440;28;20042;-75
2021/07/21 07:11:42;;;;;;;12.75;3.42;;;;;;;27.15;36.08;98457.44;4987772;28;20144;-76
2021/07/21 07:14:08;;;;;;;16.75;3.55;;;;;;;27.17;35.76;98453.00;5012735;28;20409;-76
2021/07/21 07:16:36;;;;;;;15.45;3.47;;;;;;;27.23;35.99;98461.75;5028636;28;20057;-77
2021/07/21 07:19:02;;;;;;;18.20;3.50;;;;;;;27.26;36.01;98454.50;5011800;28;20068;-77
2021/07/21 07:21:30;;;;;;;14.93;3.70;;;;;;;27.27;35.57;98458.91;5012235;28;20053;-76
2021/07/21 07:23:57;;;;;;;22.67;4.18;;;;;;;27.22;34.39;98460.16;5013338;28;20100;-76
2021/07/21 07:26:24;;;;;;;29.85;5.30;;;;;;;27.08;34.74;98458.31;5013959;28;20137;-77
2021/07/21 07:28:51;;;;;;;22.77;4.75;;;;;;;27.02;35.18;98443.19;4995105;28;20045;-76
2021/07/21 07:31:17;;;;;;;18.77;3.65;;;;;;;27.13;35.92;98457.88;5005386;28;20052;-76
2021/07/21 07:33:43;;;;;;;20.67;4.25;;;;;;;27.11;35.31;98457.50;4994717;28;20526;-76
2021/07/21 07:36:09;;;;;;;23.13;4.90;;;;;;;27.20;35.15;98457.00;5011554;28;20462;-76
2021/07/21 07:38:37;;;;;;;29.87;5.03;;;;;;;27.30;35.67;98458.06;4995479;28;20057;-76
2021/07/21 07:41:03;;;;;;;28.48;5.15;;;;;;;27.27;35.43;98454.06;5011316;28;20418;-76
2021/07/21 07:43:29;;;;;;;34.53;6.38;;;;;;;27.30;34.96;98463.66;5011459;28;20053;-76
2021/07/21 07:45:58;;;;;;;25.55;4.43;;;;;;;27.31;34.86;98452.00;5015915;28;20052;-76
2021/07/21 07:48:25;;;;;;;22.13;4.93;;;;;;;27.36;35.82;98458.38;5027539;28;20527;-76
2021/07/21 07:50:51;;;;;;;30.98;5.03;;;;;;;27.36;36.29;98456.34;5015059;28;20403;-76
2021/07/21 07:53:19;;;;;;;30.75;4.78;;;;;;;27.40;35.46;98457.13;5011074;28;20050;-76
2021/07/21 07:55:47;;;;;;;18.30;4.68;;;;;;;27.43;35.70;98458.28;4994311;28;20096;-77
2021/07/21 07:58:14;;;;;;;34.88;5.53;;;;;;;27.36;35.75;98444.34;5011935;28;20077;-76
2021/07/21 08:00:40;;;;;;;31.95;4.90;;;;;;;27.40;35.10;98453.50;5010383;28;20042;-76
2021/07/21 08:03:07;;;;;;;17.55;4.38;;;;;;;27.22;34.32;98453.75;5011730;28;20053;-78
2021/07/21 08:05:34;;;;;;;15.38;3.80;;;;;;;27.09;34.53;98450.72;5010467;28;20042;-76
2021/07/21 08:08:02;;;;;;;25.98;4.25;;;;;;;27.08;35.60;98447.09;5011626;28;20107;-78
2021/07/21 08:10:29;;;;;;;32.45;5.38;;;;;;;27.09;36.08;98457.13;5012024;28;20103;-74
2021/07/21 08:12:56;;;;;;;22.05;4.88;;;;;;;27.15;36.25;98454.63;5007411;28;20607;-74
2021/07/21 08:15:23;;;;;;;21.70;4.20;;;;;;;27.18;34.96;98463.00;5007982;28;20050;-75
2021/07/21 08:17:49;;;;;;;19.98;4.00;;;;;;;27.20;35.27;98448.56;5005397;28;20038;-76
2021/07/21 08:20:16;;;;;;;22.95;4.43;;;;;;;27.18;35.41;98457.41;5004836;28;20042;-75
2021/07/21 08:22:42;;;;;;;24.95;4.88;;;;;;;27.25;35.66;98455.72;4983272;28;20057;-76
2021/07/21 08:25:12;;;;;;;25.05;4.38;;;;;;;27.25;35.58;98450.91;5017412;28;20041;-78
2021/07/21 08:27:43;;;;;;;20.02;4.63;;;;;;;27.25;35.50;98450.13;5022066;28;20050;-75
2021/07/21 08:30:13;;;;;;;20.63;4.13;;;;;;;27.31;35.31;98446.41;5011283;28;20050;-75
2021/07/21 08:32:40;;;;;;;19.00;4.28;;;;;;;27.36;34.90;98445.13;5011447;28;20058;-75
2021/07/21 08:35:07;;;;;;;13.13;3.75;;;;;;;27.40;34.99;98445.91;5020069;28;20080;-75
2021/07/21 08:37:32;;;;;;;;;;;;;;;27.56;34.57;98448.09;5009106;28;20053;-75
2021/07/21 08:40:01;;;;;;;41.67;6.87;;;;;;;27.69;34.12;98444.69;5014272;28;19979;-75
2021/07/21 08:42:28;;;;;;;19.23;4.43;;;;;;;27.66;34.07;98440.72;5007435;28;20081;-75
2021/07/21 08:44:55;;;;;;;17.58;4.68;;;;;;;27.59;34.28;98436.00;5006747;28;20056;-75
2021/07/21 08:47:23;;;;;;;25.27;4.88;;;;;;;27.63;33.80;98435.97;5006152;28;20521;-75
2021/07/21 08:49:49;;;;;;;21.67;5.00;;;;;;;27.61;34.46;98432.78;5011252;28;20042;-74
2021/07/21 08:52:17;;;;;;;23.35;4.55;;;;;;;27.57;34.20;98432.06;5008380;28;20426;-75
2021/07/21 08:54:46;;;;;;;16.98;4.68;;;;;;;27.57;33.66;98441.25;4988891;28;20046;-74
2021/07/21 08:57:13;;;;;;;14.23;4.40;;;;;;;27.51;33.83;98434.50;4992493;28;20060;-74
2021/07/21 08:59:42;;;;;;;16.63;4.25;;;;;;;27.68;33.41;98440.31;5011071;28;20060;-74
2021/07/21 09:02:10;;;;;;;19.10;4.45;;;;;;;27.46;33.17;98432.97;5006998;28;20054;-74
2021/07/21 09:04:38;;;;;;;10.93;3.80;;;;;;;27.53;33.65;98429.31;5009542;28;20056;-75
2021/07/21 09:07:05;;;;;;;18.20;4.47;;;;;;;27.56;33.94;98424.88;5010045;28;20128;-74
2021/07/21 09:09:32;;;;;;;21.25;4.55;;;;;;;27.62;34.43;98422.34;5011058;28;20053;-74
2021/07/21 09:11:59;;;;;;;12.20;4.10;;;;;;;27.55;33.64;98421.25;5005686;28;20037;-74
2021/07/21 09:14:26;;;;;;;15.60;3.90;;;;;;;27.47;33.84;98419.72;5001589;28;20058;-74
2021/07/21 09:17:06;;;;;;;14.02;3.67;;;;;;;27.44;34.25;98401.75;5003185;28;20137;-73
2021/07/21 09:19:32;;;;;;;11.70;4.03;;;;;;;27.53;34.90;98400.44;5005433;28;20068;-74
2021/07/21 09:22:14;;;;;;;14.77;4.63;;;;;;;27.57;35.27;98416.00;4990334;28;20077;-73
2021/07/21 09:24:40;;;;;;;15.02;4.80;;;;;;;27.57;35.51;98409.59;4997921;28;20050;-74
2021/07/21 09:27:07;;;;;;;12.50;4.35;;;;;;;27.65;35.03;98418.72;4998616;28;20045;-75
2021/07/21 09:29:33;;;;;;;21.27;4.53;;;;;;;27.72;34.93;98415.78;5008083;28;20137;-74
2021/07/21 09:32:01;;;;;;;13.93;4.20;;;;;;;27.82;33.88;98405.59;4996371;28;20413;-74
2021/07/21 09:34:28;;;;;;;13.75;3.88;;;;;;;27.74;33.74;98405.72;5014000;28;20152;-75
2021/07/21 09:37:02;;;;;;;14.32;4.07;;;;;;;27.76;33.98;98402.47;5014236;28;20069;-75
2021/07/21 09:39:35;;;;;;;17.13;4.13;;;;;;;27.80;34.79;98405.22;5006771;28;20455;-75
2021/07/21 09:42:02;;;;;;;15.98;4.90;;;;;;;27.86;34.38;98392.28;5013269;28;20048;-75
2021/07/21 09:44:32;;;;;;;;;;;;;;;27.98;34.05;98399.31;5009333;28;20052;-75
2021/07/21 09:47:08;;;;;;;16.60;4.30;;;;;;;27.98;34.09;98388.88;5014608;28;19925;-75
2021/07/21 09:49:35;;;;;;;19.45;4.95;;;;;;;28.01;34.27;98398.47;5012385;28;20060;-74
2021/07/21 09:52:13;;;;;;;19.15;4.30;;;;;;;28.14;34.34;98387.38;5013151;28;20057;-75
2021/07/21 09:54:41;;;;;;;17.05;4.72;;;;;;;28.11;33.89;98372.22;5013292;28;20049;-75
2021/07/21 09:57:12;;;;;;;15.10;5.32;;;;;;;28.17;34.01;98381.75;5011835;28;20042;-75
2021/07/21 09:59:38;;;;;;;16.48;4.78;;;;;;;28.20;33.89;98382.91;5007958;28;20038;-75
2021/07/21 10:02:14;;;;;;;14.07;4.80;;;;;;;28.20;33.94;98376.47;5013475;28;20045;-75
2021/07/21 10:04:41;;;;;;;15.10;4.82;;;;;;;28.24;33.83;98382.81;5011424;28;20137;-75
2021/07/21 10:09:50;;;;;;;14.20;4.78;;;;;;;28.25;33.77;98361.94;5009866;28;19933;-76
2021/07/21 10:12:18;;;;;;;14.80;5.22;;;;;;;28.17;33.74;98375.31;5013499;28;20050;-73
2021/07/21 10:14:55;;;;;;;14.85;4.97;;;;;;;28.23;33.32;98373.63;5002386;28;20095;-74
2021/07/21 10:17:21;;;;;;;17.70;4.82;;;;;;;28.37;33.38;98378.16;5007437;28;20073;-74
2021/07/21 10:19:48;;;;;;;17.48;4.65;;;;;;;28.35;33.31;98365.78;5011252;28;20041;-76
2021/07/21 10:22:14;;;;;;;15.48;4.13;;;;;;;28.31;33.47;98365.84;5011166;28;20626;-76
2021/07/21 10:24:41;;;;;;;20.67;5.10;;;;;;;28.32;33.09;98353.38;5006972;28;20502;-73
2021/07/21 10:27:09;;;;;;;15.83;4.67;;;;;;;28.24;33.43;98354.72;5008722;28;20046;-73
2021/07/21 10:29:36;;;;;;;13.60;4.78;;;;;;;28.17;33.78;98352.84;5003754;28;20053;-72
2021/07/21 10:32:03;;;;;;;16.98;4.40;;;;;;;28.17;33.57;98345.22;5012349;28;20050;-72
2021/07/21 10:34:29;;;;;;;11.43;3.83;;;;;;;28.19;33.69;98355.22;4977099;28;20046;-71
2021/07/21 10:36:55;;;;;;;13.45;4.00;;;;;;;28.25;33.34;98350.69;5009401;28;20061;-79
2021/07/21 10:39:24;;;;;;;15.77;3.92;;;;;;;28.20;33.56;98351.19;5012115;28;20098;-73
2021/07/21 10:41:54;;;;;;;11.82;4.13;;;;;;;28.13;33.65;98355.72;5013581;28;20038;-75
2021/07/21 10:44:22;;;;;;;15.25;4.65;;;;;;;27.98;33.16;98343.94;5007983;28;20148;-75
2021/07/21 10:46:50;;;;;;;15.32;4.70;;;;;;;28.03;33.69;98351.06;5012664;28;20128;-76
2021/07/21 11:00:20;;;;;;;13.30;4.05;;;;;;;27.99;33.26;98356.75;5010762;28;20064;-74
2021/07/21 11:02:48;;;;;;;20.88;4.15;;;;;;;27.86;33.26;98330.50;5003879;28;20052;-75
2021/07/21 11:05:31;;;;;;;17.83;4.15;;;;;;;28.18;32.77;98354.47;5010380;28;20128;-75
2021/07/21 11:07:58;;;;;;;15.65;4.30;;;;;;;28.13;32.44;98366.13;4986122;28;20046;-75
2021/07/21 11:10:36;;;;;;;11.55;3.92;;;;;;;27.93;32.48;98366.09;4994230;28;20054;-75
2021/07/21 11:13:05;;;;;;;12.40;3.78;;;;;;;27.52;33.18;98348.31;5006497;28;20058;-75
2021/07/21 11:15:41;;;;;;;39.47;5.50;;;;;;;27.55;32.69;98353.91;4998425;28;20557;-80
2021/07/21 11:18:36;;;;;;;18.02;4.30;;;;;;;27.66;33.32;98352.94;4999291;28;20051;-75
2021/07/21 11:21:04;;;;;;;26.17;4.50;;;;;;;27.68;32.80;98351.28;4990003;28;20066;-76
2021/07/21 11:23:42;;;;;;;15.80;3.97;;;;;;;27.51;33.05;98364.34;5012213;28;20049;-76
2021/07/21 11:26:44;;;;;;;16.75;4.03;;;;;;;27.43;33.08;98372.09;5011453;28;20101;-76
2021/07/21 11:29:43;;;;;;;15.75;4.75;;;;;;;27.32;33.48;98361.03;5010847;28;20054;-77
2021/07/21 11:32:35;;;;;;;19.80;4.25;;;;;;;27.37;34.59;98345.72;4949572;29;20051;-80
2021/07/21 11:35:38;;;;;;;27.10;5.05;;;;;;;27.50;34.92;98373.19;4999317;28;20054;-80
2021/07/21 11:38:17;;;;;;;30.20;5.85;;;;;;;27.59;35.07;98365.06;4994651;28;20052;-80
2021/07/21 11:40:43;;;;;;;28.75;6.00;;;;;;;27.64;35.19;98361.00;5002472;28;20061;-80
2021/07/21 11:43:32;;;;;;;45.85;5.80;;;;;;;27.68;34.97;98368.09;5011474;28;20533;-78
2021/07/21 11:46:09;;;;;;;33.80;5.70;;;;;;;27.74;34.57;98360.00;5012620;28;20061;-80
2021/07/21 11:48:36;;;;;;;32.78;6.10;;;;;;;27.73;34.70;98356.41;5009667;28;20121;-78
2021/07/21 11:51:09;;;;;;;43.20;6.22;;;;;;;27.83;34.67;98353.84;5012413;28;20042;-79
2021/07/21 11:53:36;;;;;;;43.10;7.13;;;;;;;27.77;34.69;98359.13;4995109;28;20053;-78
2021/07/21 11:56:10;;;;;;;34.67;6.43;;;;;;;27.83;34.41;98370.69;4977516;28;20100;-78
2021/07/21 11:58:37;;;;;;;48.78;7.57;;;;;;;27.82;33.98;98364.28;5003422;28;20522;-79
2021/07/21 12:01:05;;;;;;;25.83;4.70;;;;;;;27.50;33.44;98361.97;4995019;28;20054;-78
2021/07/21 12:03:47;;;;;;;14.18;4.50;;;;;;;27.43;33.25;98357.25;5011921;28;20560;-78
2021/07/21 12:06:23;;;;;;;26.95;5.80;;;;;;;27.45;34.41;98347.22;5008520;28;20445;-77
2021/07/21 12:08:52;;;;;;;22.67;5.78;;;;;;;27.32;34.84;98332.19;4994377;28;20541;-77